createdAt,value
2022-09-27T00:00:14.795Z,14.03
2022-09-27T00:01:15.302Z,14.04
2022-09-27T00:02:15.014Z,14.04
2022-09-27T00:03:14.999Z,14.1
2022-09-27T00:04:14.872Z,14.07
2022-09-27T00:05:14.621Z,14.11
2022-09-27T00:06:14.645Z,14.04
2022-09-27T00:07:14.912Z,14.04
2022-09-27T00:08:14.947Z,14.08
2022-09-27T00:09:15.138Z,14.05
2022-09-27T00:10:14.459Z,14.04
2022-09-27T00:11:14.730Z,14.04
2022-09-27T00:12:15.008Z,14.07
2022-09-27T00:13:14.516Z,14.08
2022-09-27T00:14:15.044Z,14.11
2022-09-27T00:15:15.142Z,14.04
2022-09-27T00:16:15.149Z,14
2022-09-27T00:17:15.183Z,14
2022-09-27T00:18:14.612Z,14.11
2022-09-27T00:19:15.323Z,14.03
2022-09-27T00:20:14.921Z,13.97
2022-09-27T00:21:14.654Z,14.12
2022-09-27T00:22:14.938Z,14.07
2022-09-27T00:23:14.689Z,14.07
2022-09-27T00:24:14.967Z,14.08
2022-09-27T00:25:14.988Z,14.05
2022-09-27T00:26:15.258Z,14.08
2022-09-27T00:27:15.340Z,14.03
2022-09-27T00:28:15.050Z,14.11
2022-09-27T00:29:15.302Z,14.07
2022-09-27T00:30:15.366Z,14.07
2022-09-27T00:31:15.661Z,14.07
2022-09-27T00:32:15.371Z,14.05
2022-09-27T00:33:15.487Z,14.04
2022-09-27T00:34:15.161Z,14.08
2022-09-27T00:35:15.423Z,14.08
2022-09-27T00:36:15.458Z,14.12
2022-09-27T00:37:15.497Z,14.04
2022-09-27T00:38:15.269Z,14.03
2022-09-27T00:39:15.797Z,14.04
2022-09-27T00:40:21.226Z,14.05
2022-09-27T00:41:15.467Z,14.07
2022-09-27T00:42:15.568Z,14.04
2022-09-27T00:43:15.570Z,14.07
2022-09-27T00:44:15.335Z,14.08
2022-09-27T00:45:15.598Z,14
2022-09-27T00:46:15.852Z,14.04
2022-09-27T00:47:15.390Z,13.96
2022-09-27T00:48:15.854Z,14.11
2022-09-27T00:49:15.905Z,14.05
2022-09-27T00:50:15.451Z,14.04
2022-09-27T00:51:15.708Z,14.08
2022-09-27T00:52:15.484Z,14.04
2022-09-27T00:53:15.759Z,14.08
2022-09-27T00:54:15.255Z,14.04
2022-09-27T00:55:15.528Z,14
2022-09-27T00:56:15.575Z,14
2022-09-27T00:57:15.819Z,14
2022-09-27T00:58:15.850Z,13.97
2022-09-27T00:59:15.702Z,13.99
2022-09-27T01:00:15.378Z,13.99
2022-09-27T01:01:15.944Z,14
2022-09-27T01:02:15.829Z,14
2022-09-27T01:03:15.942Z,14.05
2022-09-27T01:04:15.681Z,13.99
2022-09-27T01:05:16.072Z,14.05
2022-09-27T01:06:15.985Z,14.03
2022-09-27T01:07:15.486Z,13.97
2022-09-27T01:08:16.025Z,13.97
2022-09-27T01:09:16.256Z,14.03
2022-09-27T01:10:15.823Z,13.99
2022-09-27T01:11:16.081Z,14.05
2022-09-27T01:12:15.581Z,14.03
2022-09-27T01:13:15.609Z,14
2022-09-27T01:14:15.882Z,14
2022-09-27T01:15:15.900Z,13.99
2022-09-27T01:16:16.428Z,13.96
2022-09-27T01:17:16.195Z,14.04
2022-09-27T01:18:16.201Z,13.99
2022-09-27T01:19:16.507Z,13.99
2022-09-27T01:20:15.730Z,13.97
2022-09-27T01:21:16.349Z,14.08
2022-09-27T01:22:16.292Z,14
2022-09-27T01:23:16.038Z,14.05
2022-09-27T01:24:16.318Z,13.95
2022-09-27T01:25:16.350Z,13.99
2022-09-27T01:26:16.092Z,13.97
2022-09-27T01:27:15.850Z,13.97
2022-09-27T01:28:16.385Z,13.99
2022-09-27T01:29:16.498Z,14
2022-09-27T01:30:15.916Z,13.99
2022-09-27T01:31:16.742Z,14.03
2022-09-27T01:32:16.466Z,14.07
2022-09-27T01:33:16.222Z,13.99
2022-09-27T01:34:16.536Z,13.96
2022-09-27T01:35:16.259Z,14.08
2022-09-27T01:36:16.563Z,13.97
2022-09-27T01:37:16.674Z,14
2022-09-27T01:38:16.317Z,14
2022-09-27T01:39:16.588Z,13.99
2022-09-27T01:40:16.769Z,13.96
2022-09-27T01:41:16.367Z,14.04
2022-09-27T01:42:23.796Z,13.99
2022-09-27T01:43:16.663Z,14.03
2022-09-27T01:44:16.683Z,14.04
2022-09-27T01:45:16.457Z,14.04
2022-09-27T01:46:17.100Z,14.03
2022-09-27T01:47:16.492Z,13.99
2022-09-27T01:48:16.697Z,13.99
2022-09-27T01:49:16.741Z,14.03
2022-09-27T01:50:16.536Z,14.03
2022-09-27T01:51:16.822Z,14.04
2022-09-27T01:52:16.833Z,14.08
2022-09-27T01:53:16.924Z,13.99
2022-09-27T01:54:16.864Z,14.05
2022-09-27T01:55:17.008Z,13.99
2022-09-27T01:56:16.906Z,14.08
2022-09-27T01:57:16.918Z,13.97
2022-09-27T01:58:16.684Z,13.97
2022-09-27T01:59:17.098Z,13.99
2022-09-27T02:00:16.986Z,14
2022-09-27T02:01:16.976Z,14.07
2022-09-27T02:02:17.007Z,13.99
2022-09-27T02:03:16.773Z,13.99
2022-09-27T02:04:16.789Z,14
2022-09-27T02:05:16.553Z,13.93
2022-09-27T02:06:17.590Z,14.04
2022-09-27T02:07:17.107Z,14.03
2022-09-27T02:08:16.864Z,13.97
2022-09-27T02:09:17.536Z,14
2022-09-27T02:10:16.642Z,14.08
2022-09-27T02:11:16.920Z,13.97
2022-09-27T02:12:16.674Z,14
2022-09-27T02:13:16.961Z,14
2022-09-27T02:14:16.978Z,13.97
2022-09-27T02:15:17.288Z,14.04
2022-09-27T02:16:17.212Z,14.03
2022-09-27T02:17:17.305Z,14.04
2022-09-27T02:18:16.787Z,14.03
2022-09-27T02:19:17.450Z,14
2022-09-27T02:20:17.090Z,13.99
2022-09-27T02:21:17.111Z,13.97
2022-09-27T02:22:17.155Z,14.08
2022-09-27T02:23:17.142Z,14.03
2022-09-27T02:24:17.410Z,14.07
2022-09-27T02:25:17.532Z,14.04
2022-09-27T02:26:17.454Z,14.04
2022-09-27T02:27:16.962Z,13.97
2022-09-27T02:28:17.227Z,14
2022-09-27T02:29:17.711Z,14
2022-09-27T02:30:17.427Z,13.97
2022-09-27T02:31:17.261Z,14
2022-09-27T02:32:17.707Z,13.97
2022-09-27T02:33:17.731Z,13.95
2022-09-27T02:34:17.396Z,13.99
2022-09-27T02:35:17.356Z,13.99
2022-09-27T02:36:17.426Z,13.97
2022-09-27T02:37:17.239Z,13.97
2022-09-27T02:38:17.719Z,14
2022-09-27T02:39:17.700Z,13.96
2022-09-27T02:40:17.952Z,14.05
2022-09-27T02:41:17.863Z,14.07
2022-09-27T02:42:17.481Z,14.05
2022-09-27T02:43:17.508Z,13.96
2022-09-27T02:44:17.513Z,14
2022-09-27T02:45:17.798Z,14
2022-09-27T02:46:18.019Z,13.96
2022-09-27T02:47:17.865Z,14.03
2022-09-27T02:48:17.977Z,13.95
2022-09-27T02:49:17.987Z,14
2022-09-27T02:50:17.629Z,14.04
2022-09-27T02:51:17.634Z,14
2022-09-27T02:52:17.659Z,13.95
2022-09-27T02:53:17.706Z,13.95
2022-09-27T02:54:17.953Z,13.99
2022-09-27T02:55:17.448Z,13.92
2022-09-27T02:56:17.471Z,13.99
2022-09-27T02:57:18.090Z,13.92
2022-09-27T02:58:17.772Z,13.9
2022-09-27T02:59:18.299Z,13.92
2022-09-27T03:00:18.076Z,14
2022-09-27T03:01:18.320Z,14.03
2022-09-27T03:02:18.991Z,13.96
2022-09-27T03:03:18.228Z,13.99
2022-09-27T03:04:18.131Z,13.97
2022-09-27T03:05:18.134Z,13.86
2022-09-27T03:06:18.171Z,13.9
2022-09-27T03:07:17.669Z,14.04
2022-09-27T03:08:17.946Z,13.97
2022-09-27T03:09:18.215Z,13.85
2022-09-27T03:10:18.236Z,13.85
2022-09-27T03:11:17.989Z,13.96
2022-09-27T03:12:18.014Z,14
2022-09-27T03:13:18.360Z,13.9
2022-09-27T03:14:17.791Z,13.89
2022-09-27T03:15:18.328Z,13.93
2022-09-27T03:16:18.354Z,13.89
2022-09-27T03:17:18.455Z,13.89
2022-09-27T03:18:18.379Z,13.93
2022-09-27T03:19:18.420Z,14
2022-09-27T03:20:18.207Z,13.89
2022-09-27T03:21:18.420Z,13.89
2022-09-27T03:22:18.454Z,13.89
2022-09-27T03:23:18.469Z,13.89
2022-09-27T03:24:18.232Z,13.87
2022-09-27T03:25:18.503Z,13.93
2022-09-27T03:26:18.520Z,13.99
2022-09-27T03:27:18.290Z,13.85
2022-09-27T03:28:18.307Z,13.81
2022-09-27T03:29:19.020Z,13.89
2022-09-27T03:30:18.599Z,13.89
2022-09-27T03:31:18.868Z,13.9
2022-09-27T03:32:18.385Z,13.86
2022-09-27T03:33:18.134Z,13.87
2022-09-27T03:34:18.444Z,13.93
2022-09-27T03:35:18.689Z,13.96
2022-09-27T03:36:18.448Z,13.92
2022-09-27T03:37:18.217Z,13.87
2022-09-27T03:38:18.490Z,13.95
2022-09-27T03:39:18.886Z,13.87
2022-09-27T03:40:19.048Z,13.81
2022-09-27T03:41:18.553Z,14
2022-09-27T03:42:18.308Z,13.81
2022-09-27T03:43:18.575Z,13.85
2022-09-27T03:44:18.848Z,13.9
2022-09-27T03:45:18.949Z,13.89
2022-09-27T03:46:19.118Z,13.9
2022-09-27T03:47:18.648Z,13.87
2022-09-27T03:48:18.778Z,13.93
2022-09-27T03:49:19.044Z,13.81
2022-09-27T03:50:18.961Z,13.85
2022-09-27T03:51:18.724Z,13.85
2022-09-27T03:52:18.745Z,13.83
2022-09-27T03:53:18.757Z,13.85
2022-09-27T03:54:19.045Z,13.85
2022-09-27T03:55:19.055Z,13.85
2022-09-27T03:56:18.811Z,13.85
2022-09-27T03:57:18.828Z,13.86
2022-09-27T03:58:19.097Z,13.86
2022-09-27T03:59:19.242Z,13.85
2022-09-27T04:00:19.149Z,13.86
2022-09-27T04:01:19.591Z,13.9
2022-09-27T04:02:19.338Z,13.85
2022-09-27T04:03:18.934Z,13.81
2022-09-27T04:04:19.218Z,13.9
2022-09-27T04:05:18.975Z,13.86
2022-09-27T04:06:19.255Z,13.86
2022-09-27T04:07:19.009Z,13.81
2022-09-27T04:08:19.282Z,13.81
2022-09-27T04:09:19.186Z,13.92
2022-09-27T04:10:19.058Z,13.77
2022-09-27T04:11:19.098Z,13.85
2022-09-27T04:12:19.116Z,13.75
2022-09-27T04:13:19.370Z,13.83
2022-09-27T04:14:19.136Z,13.77
2022-09-27T04:15:19.158Z,13.77
2022-09-27T04:16:19.658Z,13.85
2022-09-27T04:17:19.600Z,13.86
2022-09-27T04:18:19.463Z,13.79
2022-09-27T04:19:19.356Z,13.78
2022-09-27T04:20:19.243Z,13.79
2022-09-27T04:21:19.523Z,13.86
2022-09-27T04:22:19.535Z,13.83
2022-09-27T04:23:19.550Z,13.78
2022-09-27T04:24:19.575Z,13.86
2022-09-27T04:25:19.342Z,13.81
2022-09-27T04:26:19.348Z,13.81
2022-09-27T04:27:19.626Z,13.85
2022-09-27T04:28:19.644Z,13.74
2022-09-27T04:29:19.916Z,13.85
2022-09-27T04:30:19.428Z,13.79
2022-09-27T04:31:19.997Z,13.75
2022-09-27T04:32:19.464Z,13.77
2022-09-27T04:33:19.833Z,13.83
2022-09-27T04:34:19.748Z,13.77
2022-09-27T04:35:19.262Z,13.78
2022-09-27T04:36:19.534Z,13.83
2022-09-27T04:37:19.800Z,13.87
2022-09-27T04:38:19.834Z,13.78
2022-09-27T04:39:20.157Z,13.9
2022-09-27T04:40:19.897Z,13.83
2022-09-27T04:41:19.366Z,13.72
2022-09-27T04:42:19.899Z,13.74
2022-09-27T04:43:19.655Z,13.78
2022-09-27T04:44:19.933Z,13.74
2022-09-27T04:45:19.701Z,13.77
2022-09-27T04:46:20.217Z,13.74
2022-09-27T04:47:19.749Z,13.72
2022-09-27T04:48:20.399Z,13.85
2022-09-27T04:49:22.915Z,13.74
2022-09-27T04:50:19.783Z,13.77
2022-09-27T04:51:20.120Z,13.71
2022-09-27T04:52:20.072Z,13.85
2022-09-27T04:53:19.827Z,13.79
2022-09-27T04:54:20.147Z,13.75
2022-09-27T04:55:19.869Z,13.77
2022-09-27T04:56:20.140Z,13.75
2022-09-27T04:57:19.645Z,13.75
2022-09-27T04:58:20.199Z,13.72
2022-09-27T04:59:20.653Z,13.74
2022-09-27T05:00:19.971Z,13.74
2022-09-27T05:01:20.164Z,13.85
2022-09-27T05:02:20.312Z,13.77
2022-09-27T05:03:20.270Z,13.71
2022-09-27T05:04:20.379Z,13.83
2022-09-27T05:05:20.397Z,13.78
2022-09-27T05:06:20.333Z,13.71
2022-09-27T05:07:20.345Z,13.71
2022-09-27T05:08:19.847Z,13.71
2022-09-27T05:09:20.408Z,13.77
2022-09-27T05:10:20.146Z,13.75
2022-09-27T05:11:20.411Z,13.87
2022-09-27T05:12:20.170Z,13.78
2022-09-27T05:13:20.458Z,13.74
2022-09-27T05:14:20.415Z,13.78
2022-09-27T05:15:20.234Z,13.71
2022-09-27T05:16:20.693Z,13.78
2022-09-27T05:17:20.560Z,13.68
2022-09-27T05:18:20.591Z,13.71
2022-09-27T05:19:20.669Z,13.71
2022-09-27T05:20:20.336Z,13.74
2022-09-27T05:21:20.664Z,13.79
2022-09-27T05:22:20.664Z,13.72
2022-09-27T05:23:20.379Z,13.81
2022-09-27T05:24:20.384Z,13.72
2022-09-27T05:25:20.409Z,13.79
2022-09-27T05:26:20.164Z,13.74
2022-09-27T05:27:20.725Z,13.71
2022-09-27T05:28:20.462Z,13.75
2022-09-27T05:29:20.587Z,13.74
2022-09-27T05:30:20.501Z,13.77
2022-09-27T05:31:21.131Z,13.75
2022-09-27T05:32:20.271Z,13.72
2022-09-27T05:33:20.555Z,13.74
2022-09-27T05:34:20.822Z,13.68
2022-09-27T05:35:20.848Z,13.7
2022-09-27T05:36:20.348Z,13.7
2022-09-27T05:37:20.940Z,13.75
2022-09-27T05:38:20.644Z,13.75
2022-09-27T05:39:20.857Z,13.85
2022-09-27T05:40:44.612Z,13.71
2022-09-27T05:41:21.216Z,13.77
2022-09-27T05:42:20.700Z,13.77
2022-09-27T05:43:21.064Z,13.7
2022-09-27T05:44:20.873Z,13.75
2022-09-27T05:45:20.506Z,13.74
2022-09-27T05:46:21.237Z,13.78
2022-09-27T05:47:21.308Z,13.71
2022-09-27T05:48:21.378Z,13.71
2022-09-27T05:49:21.089Z,13.71
2022-09-27T05:50:20.848Z,13.7
2022-09-27T05:51:21.123Z,13.81
2022-09-27T05:52:25.719Z,13.75
2022-09-27T05:53:21.205Z,13.86
2022-09-27T05:54:21.139Z,13.72
2022-09-27T05:55:20.948Z,13.77
2022-09-27T05:56:20.955Z,13.81
2022-09-27T05:57:21.236Z,13.74
2022-09-27T05:58:21.440Z,13.78
2022-09-27T05:59:21.019Z,13.68
2022-09-27T06:00:21.295Z,13.79
2022-09-27T06:01:21.296Z,13.75
2022-09-27T06:02:21.289Z,13.72
2022-09-27T06:03:21.114Z,13.79
2022-09-27T06:04:21.370Z,13.72
2022-09-27T06:05:21.378Z,13.75
2022-09-27T06:06:21.139Z,13.75
2022-09-27T06:07:21.422Z,13.77
2022-09-27T06:08:21.493Z,13.77
2022-09-27T06:09:21.705Z,13.78
2022-09-27T06:10:21.471Z,13.79
2022-09-27T06:11:21.228Z,13.81
2022-09-27T06:12:21.509Z,13.74
2022-09-27T06:13:21.265Z,13.77
2022-09-27T06:14:21.547Z,13.75
2022-09-27T06:15:21.560Z,13.72
2022-09-27T06:16:21.565Z,13.83
2022-09-27T06:17:21.596Z,13.74
2022-09-27T06:18:21.350Z,13.86
2022-09-27T06:19:21.820Z,13.83
2022-09-27T06:20:21.685Z,13.75
2022-09-27T06:21:21.409Z,13.77
2022-09-27T06:22:21.169Z,13.75
2022-09-27T06:23:21.442Z,13.83
2022-09-27T06:24:21.512Z,13.75
2022-09-27T06:25:21.767Z,13.75
2022-09-27T06:26:21.762Z,13.75
2022-09-27T06:27:21.763Z,13.77
2022-09-27T06:28:21.535Z,13.7
2022-09-27T06:29:21.916Z,13.72
2022-09-27T06:30:25.037Z,13.83
2022-09-27T06:31:21.783Z,13.78
2022-09-27T06:32:21.613Z,13.77
2022-09-27T06:33:21.879Z,13.9
2022-09-27T06:34:21.382Z,13.92
2022-09-27T06:35:21.911Z,13.87
2022-09-27T06:36:21.671Z,13.81
2022-09-27T06:37:21.958Z,13.83
2022-09-27T06:38:21.972Z,13.81
2022-09-27T06:39:22.131Z,13.86
2022-09-27T06:40:22.168Z,13.87
2022-09-27T06:41:22.057Z,13.83
2022-09-27T06:42:21.539Z,13.96
2022-09-27T06:43:21.545Z,13.97
2022-09-27T06:44:21.568Z,13.97
2022-09-27T06:45:21.579Z,13.86
2022-09-27T06:46:22.104Z,13.97
2022-09-27T06:47:21.865Z,13.93
2022-09-27T06:48:21.949Z,13.83
2022-09-27T06:49:22.371Z,13.9
2022-09-27T06:50:21.920Z,13.86
2022-09-27T06:51:22.211Z,13.85
2022-09-27T06:52:21.978Z,13.86
2022-09-27T06:53:21.994Z,13.87
2022-09-27T06:54:22.259Z,13.83
2022-09-27T06:55:22.280Z,13.92
2022-09-27T06:56:22.344Z,13.85
2022-09-27T06:57:22.101Z,13.9
2022-09-27T06:58:22.069Z,13.83
2022-09-27T06:59:22.356Z,13.87
2022-09-27T07:00:22.122Z,13.86
2022-09-27T07:01:22.438Z,13.86
2022-09-27T07:02:22.643Z,13.85
2022-09-27T07:03:22.179Z,13.87
2022-09-27T07:04:22.440Z,13.85
2022-09-27T07:05:22.477Z,13.95
2022-09-27T07:06:22.217Z,13.86
2022-09-27T07:07:22.227Z,13.92
2022-09-27T07:08:22.253Z,13.93
2022-09-27T07:09:22.389Z,13.86
2022-09-27T07:10:22.568Z,13.87
2022-09-27T07:11:22.587Z,13.87
2022-09-27T07:12:22.624Z,13.95
2022-09-27T07:13:22.659Z,13.96
2022-09-27T07:14:22.619Z,13.95
2022-09-27T07:15:22.380Z,13.93
2022-09-27T07:16:22.629Z,13.9
2022-09-27T07:17:22.425Z,13.9
2022-09-27T07:18:22.692Z,13.87
2022-09-27T07:19:22.456Z,13.97
2022-09-27T07:20:23.231Z,13.96
2022-09-27T07:21:22.747Z,13.85
2022-09-27T07:22:22.529Z,13.86
2022-09-27T07:23:22.519Z,13.83
2022-09-27T07:24:22.788Z,13.87
2022-09-27T07:25:22.564Z,13.87
2022-09-27T07:26:22.586Z,13.92
2022-09-27T07:27:22.867Z,13.9
2022-09-27T07:28:26.916Z,13.89
2022-09-27T07:29:22.912Z,13.87
2022-09-27T07:30:22.958Z,13.86
2022-09-27T07:31:23.017Z,13.87
2022-09-27T07:32:22.941Z,13.97
2022-09-27T07:33:22.710Z,13.89
2022-09-27T07:34:22.713Z,13.85
2022-09-27T07:35:23.002Z,13.93
2022-09-27T07:36:23.026Z,13.92
2022-09-27T07:37:23.046Z,13.96
2022-09-27T07:38:22.802Z,14
2022-09-27T07:39:23.077Z,14
2022-09-27T07:40:23.211Z,13.9
2022-09-27T07:41:23.113Z,13.99
2022-09-27T07:42:22.869Z,14.04
2022-09-27T07:43:22.886Z,14.04
2022-09-27T07:44:23.270Z,13.99
2022-09-27T07:45:23.214Z,14.03
2022-09-27T07:46:23.118Z,14.05
2022-09-27T07:47:23.221Z,14.11
2022-09-27T07:48:23.437Z,14.11
2022-09-27T07:49:23.253Z,14.03
2022-09-27T07:50:23.274Z,14.11
2022-09-27T07:51:23.031Z,14.07
2022-09-27T07:52:23.057Z,14.12
2022-09-27T07:53:23.066Z,14.15
2022-09-27T07:54:23.343Z,14.14
2022-09-27T07:55:23.099Z,14.12
2022-09-27T07:56:23.130Z,14.2
2022-09-27T07:57:23.410Z,14.2
2022-09-27T07:58:23.169Z,14.25
2022-09-27T07:59:23.176Z,14.15
2022-09-27T08:00:23.276Z,14.25
2022-09-27T08:01:23.790Z,14.14
2022-09-27T08:02:23.866Z,14.17
2022-09-27T08:03:23.502Z,14.25
2022-09-27T08:04:23.534Z,14.29
2022-09-27T08:05:23.026Z,14.25
2022-09-27T08:06:23.308Z,14.2
2022-09-27T08:07:23.319Z,14.25
2022-09-27T08:08:23.083Z,14.3
2022-09-27T08:09:23.620Z,14.32
2022-09-27T08:10:23.679Z,14.29
2022-09-27T08:11:23.395Z,14.26
2022-09-27T08:12:23.160Z,14.33
2022-09-27T08:13:23.447Z,14.29
2022-09-27T08:14:23.452Z,14.3
2022-09-27T08:15:23.738Z,14.32
2022-09-27T08:16:23.900Z,14.4
2022-09-27T08:17:23.542Z,14.37
2022-09-27T08:18:23.792Z,14.41
2022-09-27T08:19:23.300Z,14.3
2022-09-27T08:20:23.653Z,14.26
2022-09-27T08:21:23.596Z,14.26
2022-09-27T08:22:23.852Z,14.43
2022-09-27T08:23:24.028Z,14.36
2022-09-27T08:24:23.644Z,14.41
2022-09-27T08:25:23.965Z,14.35
2022-09-27T08:26:23.692Z,14.41
2022-09-27T08:27:23.696Z,14.5
2022-09-27T08:28:23.715Z,14.54
2022-09-27T08:29:24.038Z,14.54
2022-09-27T08:30:24.034Z,14.44
2022-09-27T08:31:23.801Z,14.48
2022-09-27T08:32:28.208Z,14.5
2022-09-27T08:33:24.742Z,14.55
2022-09-27T08:34:24.073Z,14.44
2022-09-27T08:35:23.578Z,14.6
2022-09-27T08:36:24.112Z,14.47
2022-09-27T08:37:24.037Z,14.6
2022-09-27T08:38:24.167Z,14.58
2022-09-27T08:39:23.656Z,14.6
2022-09-27T08:40:24.280Z,14.6
2022-09-27T08:41:24.046Z,14.62
2022-09-27T08:42:24.064Z,14.58
2022-09-27T08:43:24.082Z,14.68
2022-09-27T08:44:24.254Z,14.63
2022-09-27T08:45:24.149Z,14.62
2022-09-27T08:46:24.044Z,14.7
2022-09-27T08:47:24.315Z,14.77
2022-09-27T08:48:24.504Z,14.69
2022-09-27T08:49:24.414Z,14.66
2022-09-27T08:50:24.382Z,14.68
2022-09-27T08:51:24.153Z,14.73
2022-09-27T08:52:24.405Z,14.73
2022-09-27T08:53:24.169Z,14.73
2022-09-27T08:54:24.439Z,14.77
2022-09-27T08:55:24.461Z,14.68
2022-09-27T08:56:24.082Z,14.81
2022-09-27T08:57:24.518Z,14.77
2022-09-27T08:58:24.524Z,14.79
2022-09-27T08:59:24.288Z,14.78
2022-09-27T09:00:24.407Z,14.73
2022-09-27T09:01:30.723Z,14.86
2022-09-27T09:02:24.533Z,14.81
2022-09-27T09:03:24.621Z,14.84
2022-09-27T09:04:24.428Z,14.84
2022-09-27T09:05:24.413Z,14.84
2022-09-27T09:06:24.673Z,14.89
2022-09-27T09:07:24.701Z,14.88
2022-09-27T09:08:24.693Z,14.79
2022-09-27T09:09:24.519Z,14.81
2022-09-27T09:10:24.784Z,14.79
2022-09-27T09:11:25.466Z,14.81
2022-09-27T09:12:24.781Z,14.79
2022-09-27T09:13:24.803Z,14.79
2022-09-27T09:14:24.789Z,14.72
2022-09-27T09:15:24.854Z,14.72
2022-09-27T09:16:25.054Z,14.78
2022-09-27T09:17:24.897Z,14.79
2022-09-27T09:18:24.631Z,14.82
2022-09-27T09:19:24.911Z,14.79
2022-09-27T09:20:25.083Z,14.86
2022-09-27T09:21:24.968Z,14.82
2022-09-27T09:22:24.707Z,14.7
2022-09-27T09:23:24.745Z,14.91
2022-09-27T09:24:25.010Z,14.79
2022-09-27T09:25:25.040Z,14.92
2022-09-27T09:26:25.077Z,14.88
2022-09-27T09:27:25.062Z,14.88
2022-09-27T09:28:24.560Z,15.02
2022-09-27T09:29:25.099Z,14.94
2022-09-27T09:30:24.882Z,14.97
2022-09-27T09:31:25.413Z,14.94
2022-09-27T09:32:24.635Z,14.94
2022-09-27T09:33:24.663Z,15
2022-09-27T09:34:24.935Z,14.89
2022-09-27T09:35:25.209Z,14.97
2022-09-27T09:36:25.293Z,14.92
2022-09-27T09:37:25.278Z,15
2022-09-27T09:38:25.017Z,14.88
2022-09-27T09:39:25.026Z,14.97
2022-09-27T09:40:25.539Z,14.92
2022-09-27T09:41:25.063Z,14.82
2022-09-27T09:42:25.091Z,14.86
2022-09-27T09:43:25.362Z,14.88
2022-09-27T09:44:25.387Z,14.89
2022-09-27T09:45:25.627Z,14.99
2022-09-27T09:46:25.160Z,15.03
2022-09-27T09:47:25.437Z,14.94
2022-09-27T09:48:25.212Z,15.02
2022-09-27T09:49:25.477Z,15.09
2022-09-27T09:50:25.559Z,15.09
2022-09-27T09:51:25.271Z,15.06
2022-09-27T09:52:25.347Z,15.1
2022-09-27T09:53:25.318Z,15.19
2022-09-27T09:54:25.571Z,15.15
2022-09-27T09:55:25.323Z,15.14
2022-09-27T09:56:25.606Z,15.09
2022-09-27T09:57:25.630Z,15.1
2022-09-27T09:58:25.129Z,15.11
2022-09-27T09:59:25.144Z,15.19
2022-09-27T10:00:25.539Z,15.11
2022-09-27T10:01:25.699Z,15.22
2022-09-27T10:02:25.434Z,15.18
2022-09-27T10:03:25.747Z,15.19
2022-09-27T10:04:25.247Z,15.11
2022-09-27T10:05:25.516Z,15.21
2022-09-27T10:06:25.538Z,15.22
2022-09-27T10:07:25.554Z,15.19
2022-09-27T10:08:25.659Z,15.14
2022-09-27T10:09:25.872Z,15.21
2022-09-27T10:10:25.682Z,15.18
2022-09-27T10:11:25.626Z,15.21
2022-09-27T10:12:25.663Z,15.19
2022-09-27T10:13:25.933Z,15.18
2022-09-27T10:14:25.687Z,15.28
2022-09-27T10:15:25.713Z,15.33
2022-09-27T10:16:25.848Z,15.33
2022-09-27T10:17:26.004Z,15.39
2022-09-27T10:18:26.072Z,15.39
2022-09-27T10:19:26.050Z,15.42
2022-09-27T10:20:25.799Z,15.29
2022-09-27T10:21:26.082Z,15.44
2022-09-27T10:22:25.836Z,15.37
2022-09-27T10:23:26.264Z,15.43
2022-09-27T10:24:27.171Z,15.39
2022-09-27T10:25:26.181Z,15.46
2022-09-27T10:26:25.937Z,15.49
2022-09-27T10:27:25.940Z,15.47
2022-09-27T10:28:25.958Z,15.37
2022-09-27T10:29:25.979Z,15.4
2022-09-27T10:30:26.256Z,15.35
2022-09-27T10:31:26.427Z,15.36
2022-09-27T10:32:26.031Z,15.28
2022-09-27T10:33:26.051Z,15.31
2022-09-27T10:34:26.332Z,15.31
2022-09-27T10:35:28.877Z,15.24
2022-09-27T10:36:26.126Z,15.22
2022-09-27T10:37:26.153Z,15.21
2022-09-27T10:38:26.143Z,15.17
2022-09-27T10:39:26.211Z,15.09
2022-09-27T10:40:26.647Z,15.1
2022-09-27T10:41:26.510Z,15.09
2022-09-27T10:42:26.224Z,15.11
2022-09-27T10:43:32.210Z,15.06
2022-09-27T10:44:26.260Z,15.06
2022-09-27T10:45:26.847Z,15.09
2022-09-27T10:46:26.448Z,15.09
2022-09-27T10:47:26.662Z,15.06
2022-09-27T10:48:26.704Z,15.07
2022-09-27T10:49:26.457Z,15.07
2022-09-27T10:50:58.281Z,15.04
2022-09-27T10:51:26.686Z,15.1
2022-09-27T10:52:26.439Z,15.11
2022-09-27T10:53:26.715Z,15.21
2022-09-27T10:54:26.708Z,15.18
2022-09-27T10:55:26.722Z,15.18
2022-09-27T10:56:26.547Z,15.17
2022-09-27T10:57:26.532Z,15.11
2022-09-27T10:58:26.779Z,15.11
2022-09-27T10:59:26.559Z,15.11
2022-09-27T11:00:26.567Z,15.03
2022-09-27T11:01:26.836Z,15.1
2022-09-27T11:02:26.860Z,15.14
2022-09-27T11:03:26.874Z,15.14
2022-09-27T11:04:26.810Z,15.14
2022-09-27T11:05:26.914Z,15.04
2022-09-27T11:06:26.687Z,14.99
2022-09-27T11:07:26.728Z,15
2022-09-27T11:08:26.970Z,14.97
2022-09-27T11:09:26.996Z,15.02
2022-09-27T11:10:27.012Z,14.97
2022-09-27T11:11:27.037Z,14.91
2022-09-27T11:12:27.097Z,15.02
2022-09-27T11:13:27.092Z,14.92
2022-09-27T11:14:27.084Z,14.94
2022-09-27T11:15:26.593Z,14.94
2022-09-27T11:16:27.135Z,15.02
2022-09-27T11:17:26.623Z,15.03
2022-09-27T11:18:26.907Z,15.03
2022-09-27T11:19:27.220Z,15.06
2022-09-27T11:20:26.938Z,15.14
2022-09-27T11:21:26.972Z,15.11
2022-09-27T11:22:26.979Z,15.09
2022-09-27T11:23:27.457Z,15.15
2022-09-27T11:24:27.019Z,15.18
2022-09-27T11:25:31.962Z,15.22
2022-09-27T11:26:27.103Z,15.25
2022-09-27T11:27:27.072Z,15.19
2022-09-27T11:28:27.422Z,15.24
2022-09-27T11:29:27.398Z,15.31
2022-09-27T11:30:27.393Z,15.28
2022-09-27T11:31:27.659Z,15.31
2022-09-27T11:32:27.174Z,15.25
2022-09-27T11:33:27.442Z,15.36
2022-09-27T11:34:27.206Z,15.36
2022-09-27T11:35:27.490Z,15.29
2022-09-27T11:36:27.245Z,15.33
2022-09-27T11:37:27.523Z,15.33
2022-09-27T11:39:00.473Z,15.28
2022-09-27T11:39:27.042Z,15.35
2022-09-27T11:40:27.737Z,15.39
2022-09-27T11:41:27.598Z,15.35
2022-09-27T11:42:27.617Z,15.31
2022-09-27T11:43:27.388Z,15.35
2022-09-27T11:44:27.726Z,15.25
2022-09-27T11:46:24.567Z,15.15
2022-09-27T11:46:47.594Z,15.24
2022-09-27T11:47:47.008Z,15.19
2022-09-27T11:48:46.900Z,15.22
2022-09-27T11:49:46.908Z,15.19
2022-09-27T11:50:46.675Z,15.19
2022-09-27T11:51:46.956Z,15.21
2022-09-27T11:52:46.973Z,15.18
2022-09-27T11:53:47.248Z,15.18
2022-09-27T11:54:47.268Z,15.22
2022-09-27T11:55:47.027Z,15.21
2022-09-27T11:56:47.059Z,15.27
2022-09-27T11:57:47.066Z,15.17
2022-09-27T11:58:47.085Z,15.22
2022-09-27T11:59:47.168Z,15.19
2022-09-27T12:00:47.398Z,15.24
2022-09-27T12:01:47.306Z,15.24
2022-09-27T12:02:47.351Z,15.27
2022-09-27T12:03:47.176Z,15.19
2022-09-27T12:04:47.199Z,15.15
2022-09-27T12:05:55.180Z,15.22
2022-09-27T12:06:47.282Z,15.22
2022-09-27T12:07:47.255Z,15.17
2022-09-27T12:08:47.534Z,15.18
2022-09-27T12:09:47.301Z,15.15
2022-09-27T12:10:47.570Z,15.19
2022-09-27T12:11:47.585Z,15.22
2022-09-27T12:12:47.619Z,15.21
2022-09-27T12:13:47.633Z,15.27
2022-09-27T12:14:47.645Z,15.31
2022-09-27T12:15:47.968Z,15.35
2022-09-27T12:16:47.711Z,15.31
2022-09-27T12:17:47.720Z,15.42
2022-09-27T12:18:53.891Z,15.42
2022-09-27T12:19:47.486Z,15.37
2022-09-27T12:20:47.506Z,15.4
2022-09-27T12:21:47.778Z,15.46
2022-09-27T12:23:04.795Z,15.51
2022-09-27T12:23:48.223Z,15.47
2022-09-27T12:24:47.576Z,15.42
2022-09-27T12:25:47.930Z,15.39
2022-09-27T12:26:47.869Z,15.46
2022-09-27T12:27:47.635Z,15.44
2022-09-27T12:28:47.649Z,15.43
2022-09-27T12:29:47.423Z,15.4
2022-09-27T12:30:47.438Z,15.37
2022-09-27T12:31:48.223Z,15.27
2022-09-27T12:32:48.017Z,15.37
2022-09-27T12:33:48.023Z,15.31
2022-09-27T12:34:48.023Z,15.37
2022-09-27T12:35:48.048Z,15.24
2022-09-27T12:36:47.808Z,15.29
2022-09-27T12:37:47.830Z,15.33
2022-09-27T12:38:47.856Z,15.36
2022-09-27T12:39:48.123Z,15.31
2022-09-27T12:40:48.396Z,15.29
2022-09-27T12:41:48.180Z,15.37
2022-09-27T12:42:48.258Z,15.35
2022-09-27T12:43:52.274Z,15.33
2022-09-27T12:44:54.257Z,15.36
2022-09-27T12:45:48.232Z,15.29
2022-09-27T12:46:48.393Z,15.33
2022-09-27T12:47:48.308Z,15.31
2022-09-27T12:48:48.327Z,15.29
2022-09-27T12:49:48.096Z,15.27
2022-09-27T12:50:48.082Z,15.31
2022-09-27T12:51:48.097Z,15.31
2022-09-27T12:52:48.367Z,15.29
2022-09-27T12:53:48.125Z,15.35
2022-09-27T12:54:47.892Z,15.28
2022-09-27T12:55:48.270Z,15.25
2022-09-27T12:56:48.192Z,15.28
2022-09-27T12:57:48.455Z,15.28